Time;durP1;ratioP1;P1;durP2;ratioP2;P2;SDS_P1;SDS_P2;PMS_P1;PMS_P2;Temp;Humidity;BMP_temperature;BMP_pressure;BME280_temperature;BME280_humidity;BME280_pressure;Samples;Min_cycle;Max_cycle;Signal;HPM_P1;HPM_P2
2022/07/23 00:00:53;;;;;;;13.10;7.43;;;;;;;;;;5055946;28;20221;-67
2022/07/23 00:03:19;;;;;;;11.20;7.40;;;;;;;;;;5038081;28;20187;-67
2022/07/23 00:05:45;;;;;;;10.93;7.60;;;;;;;;;;5038073;28;20186;-67
2022/07/23 00:08:11;;;;;;;9.83;7.43;;;;;;;;;;5055931;28;20187;-67
2022/07/23 00:10:38;;;;;;;9.80;7.87;;;;;;;;;;5038171;28;20193;-67
2022/07/23 00:13:04;;;;;;;10.03;7.83;;;;;;;;;;5037815;28;20210;-67
2022/07/23 00:15:30;;;;;;;9.00;6.97;;;;;;;;;;5037932;28;20186;-67
2022/07/23 00:17:56;;;;;;;11.30;7.70;;;;;;;;;;5037960;28;20265;-67
2022/07/23 00:20:22;;;;;;;10.47;7.50;;;;;;;;;;5037681;28;20720;-67
2022/07/23 00:22:48;;;;;;;9.53;7.60;;;;;;;;;;5055456;28;20250;-67
2022/07/23 00:25:14;;;;;;;9.00;7.43;;;;;;;;;;5056097;28;20183;-67
2022/07/23 00:27:40;;;;;;;10.40;7.40;;;;;;;;;;5037258;28;20190;-67
2022/07/23 00:30:07;;;;;;;8.37;7.13;;;;;;;;;;5055996;28;20189;-68
2022/07/23 00:32:33;;;;;;;8.37;7.30;;;;;;;;;;5055255;28;20206;-67
2022/07/23 00:34:59;;;;;;;9.87;7.20;;;;;;;;;;5037458;28;20205;-67
2022/07/23 00:37:25;;;;;;;11.73;7.73;;;;;;;;;;5055277;28;20183;-67
2022/07/23 00:39:51;;;;;;;12.70;8.03;;;;;;;;;;5055193;28;20181;-67
2022/07/23 00:42:17;;;;;;;12.00;7.73;;;;;;;;;;5054990;28;20309;-68
2022/07/23 00:44:43;;;;;;;11.30;8.00;;;;;;;;;;5055077;28;20186;-67
2022/07/23 00:47:09;;;;;;;9.10;7.20;;;;;;;;;;5055365;28;20193;-67
2022/07/23 00:49:35;;;;;;;10.97;7.47;;;;;;;;;;5055070;28;20642;-69
2022/07/23 00:52:02;;;;;;;10.07;8.37;;;;;;;;;;5055383;28;20658;-67
2022/07/23 00:54:29;;;;;;;12.60;8.00;;;;;;;;;;5037050;28;20563;-67
2022/07/23 00:56:55;;;;;;;13.27;8.07;;;;;;;;;;5055032;28;20181;-67
2022/07/23 00:59:21;;;;;;;8.77;7.53;;;;;;;;;;5054838;28;20182;-67
2022/07/23 01:01:48;;;;;;;12.37;8.07;;;;;;;;;;5054997;28;20190;-67
2022/07/23 01:04:15;;;;;;;13.87;8.00;;;;;;;;;;5054853;28;20258;-67
2022/07/23 01:06:41;;;;;;;9.30;8.37;;;;;;;;;;5054789;28;20174;-67
2022/07/23 01:09:07;;;;;;;9.70;7.80;;;;;;;;;;5054712;28;20296;-67
2022/07/23 01:11:34;;;;;;;10.37;8.30;;;;;;;;;;5054587;28;20297;-67
2022/07/23 01:14:08;;;;;;;10.90;8.07;;;;;;;;;;5054541;28;20236;-67
2022/07/23 01:16:34;;;;;;;10.97;7.83;;;;;;;;;;5055141;28;20213;-67
2022/07/23 01:19:00;;;;;;;10.60;7.40;;;;;;;;;;5036623;28;20182;-67
2022/07/23 01:21:26;;;;;;;9.00;7.40;;;;;;;;;;5054399;28;20196;-67
2022/07/23 01:23:52;;;;;;;8.20;7.00;;;;;;;;;;5054411;28;20209;-67
2022/07/23 01:26:18;;;;;;;8.60;6.97;;;;;;;;;;5054803;28;20594;-67
2022/07/23 01:28:44;;;;;;;8.43;7.03;;;;;;;;;;5054339;28;20178;-67
2022/07/23 01:31:10;;;;;;;10.90;7.47;;;;;;;;;;5054255;28;20218;-67
2022/07/23 01:33:36;;;;;;;10.43;7.43;;;;;;;;;;5054453;28;20202;-67
2022/07/23 01:36:02;;;;;;;8.77;7.10;;;;;;;;;;5036330;28;20634;-67
2022/07/23 01:38:27;;;;;;;10.17;7.47;;;;;;;;;;5054150;28;20175;-67
2022/07/23 01:40:53;;;;;;;11.00;7.87;;;;;;;;;;5053262;28;20197;-67
2022/07/23 01:43:19;;;;;;;8.93;7.30;;;;;;;;;;5054276;28;20198;-67
2022/07/23 01:45:45;;;;;;;9.47;7.50;;;;;;;;;;5036091;28;20208;-67
2022/07/23 01:48:11;;;;;;;10.30;7.47;;;;;;;;;;5053923;28;20185;-67
2022/07/23 01:50:37;;;;;;;11.07;8.13;;;;;;;;;;5053935;28;20257;-67
2022/07/23 01:53:03;;;;;;;9.20;7.17;;;;;;;;;;5053692;28;20248;-67
2022/07/23 01:55:29;;;;;;;10.80;7.63;;;;;;;;;;5054037;28;20171;-67
2022/07/23 01:57:55;;;;;;;11.67;7.50;;;;;;;;;;5035893;28;20206;-67
2022/07/23 02:00:21;;;;;;;10.00;7.60;;;;;;;;;;5053755;28;20178;-67
2022/07/23 02:02:47;;;;;;;9.43;8.33;;;;;;;;;;5035911;28;20682;-67
2022/07/23 02:05:13;;;;;;;11.73;7.80;;;;;;;;;;5053672;28;20182;-67
2022/07/23 02:07:39;;;;;;;9.80;8.43;;;;;;;;;;5035812;28;20190;-67
2022/07/23 02:10:05;;;;;;;11.20;8.63;;;;;;;;;;5053606;28;20178;-67
2022/07/23 02:12:31;;;;;;;12.53;8.50;;;;;;;;;;5053502;28;20686;-67
2022/07/23 02:14:57;;;;;;;10.10;8.33;;;;;;;;;;5035539;28;20316;-67
2022/07/23 02:17:23;;;;;;;12.97;8.50;;;;;;;;;;5078909;22;20233;-66
2022/07/23 02:19:49;;;;;;;12.87;8.30;;;;;;;;;;5053506;28;20197;-66
2022/07/23 02:22:15;;;;;;;11.27;8.90;;;;;;;;;;5035655;28;20280;-65
2022/07/23 02:24:41;;;;;;;10.73;9.03;;;;;;;;;;5035594;28;20546;-66
2022/07/23 02:27:07;;;;;;;10.77;9.07;;;;;;;;;;5053646;28;20566;-66
2022/07/23 02:29:33;;;;;;;11.13;9.17;;;;;;;;;;5053846;28;20549;-66
2022/07/23 02:31:59;;;;;;;11.90;9.07;;;;;;;;;;5035381;28;20627;-65
2022/07/23 02:34:24;;;;;;;12.60;9.00;;;;;;;;;;5053810;28;20179;-66
2022/07/23 02:36:50;;;;;;;10.50;9.07;;;;;;;;;;5053700;28;20259;-66
2022/07/23 02:39:16;;;;;;;11.03;9.33;;;;;;;;;;5035578;28;20189;-66
2022/07/23 02:41:42;;;;;;;8.33;7.53;;;;;;;;;;5035465;28;20186;-66
2022/07/23 02:44:08;;;;;;;9.57;8.47;;;;;;;;;;5053272;28;20178;-66
2022/07/23 02:46:34;;;;;;;11.03;8.63;;;;;;;;;;5035239;28;20198;-66
2022/07/23 02:49:00;;;;;;;9.77;8.67;;;;;;;;;;5035236;28;20182;-66
2022/07/23 02:51:26;;;;;;;12.67;9.03;;;;;;;;;;5052999;28;20258;-66
2022/07/23 02:53:52;;;;;;;12.00;9.53;;;;;;;;;;5053204;28;20198;-66
2022/07/23 02:56:18;;;;;;;13.07;10.00;;;;;;;;;;5052898;28;20202;-66
2022/07/23 02:58:44;;;;;;;10.10;9.00;;;;;;;;;;5053213;28;20190;-63
2022/07/23 03:01:10;;;;;;;10.90;9.23;;;;;;;;;;5052961;28;20185;-66
2022/07/23 03:03:36;;;;;;;14.23;9.57;;;;;;;;;;5035114;28;20185;-65
2022/07/23 03:06:02;;;;;;;18.07;9.73;;;;;;;;;;5052895;28;20212;-66
2022/07/23 03:08:28;;;;;;;11.97;9.40;;;;;;;;;;5052798;28;20652;-66
2022/07/23 03:10:54;;;;;;;11.80;8.97;;;;;;;;;;5053414;28;20201;-66
2022/07/23 03:13:20;;;;;;;13.47;9.97;;;;;;;;;;5053507;28;20202;-65
2022/07/23 03:15:46;;;;;;;11.93;9.23;;;;;;;;;;5035753;28;20178;-66
2022/07/23 03:18:12;;;;;;;11.27;9.33;;;;;;;;;;5035599;28;20237;-66
2022/07/23 03:20:38;;;;;;;14.53;9.97;;;;;;;;;;5053445;28;20287;-66
2022/07/23 03:23:04;;;;;;;11.87;9.93;;;;;;;;;;5052884;28;20194;-66
2022/07/23 03:25:30;;;;;;;12.77;9.43;;;;;;;;;;5052731;28;20181;-67
2022/07/23 03:27:56;;;;;;;13.70;10.43;;;;;;;;;;5052838;28;20202;-66
2022/07/23 03:30:22;;;;;;;11.43;9.67;;;;;;;;;;5052665;28;20232;-67
2022/07/23 03:32:47;;;;;;;13.73;9.13;;;;;;;;;;5052533;28;20202;-66
2022/07/23 03:35:13;;;;;;;12.97;10.00;;;;;;;;;;5052616;28;20185;-66
2022/07/23 03:37:39;;;;;;;9.97;8.93;;;;;;;;;;5034707;28;20198;-66
2022/07/23 03:40:06;;;;;;;13.37;9.87;;;;;;;;;;5034743;28;20174;-66
2022/07/23 03:42:32;;;;;;;11.33;9.13;;;;;;;;;;5034665;28;20229;-66
2022/07/23 03:44:58;;;;;;;12.50;9.60;;;;;;;;;;5052719;28;20659;-66
2022/07/23 03:47:23;;;;;;;12.03;9.40;;;;;;;;;;5052624;28;20671;-66
2022/07/23 03:49:50;;;;;;;10.93;9.23;;;;;;;;;;5052758;28;20593;-66
2022/07/23 03:52:15;;;;;;;14.03;8.93;;;;;;;;;;5052544;28;20198;-65
2022/07/23 03:54:41;;;;;;;11.10;9.80;;;;;;;;;;5052369;28;20206;-66
2022/07/23 03:57:07;;;;;;;12.27;9.20;;;;;;;;;;5034437;28;20199;-66
2022/07/23 03:59:33;;;;;;;10.23;9.13;;;;;;;;;;5052624;28;20189;-66
2022/07/23 04:01:59;;;;;;;12.10;9.73;;;;;;;;;;5052331;28;20182;-66
2022/07/23 04:04:25;;;;;;;12.87;9.50;;;;;;;;;;5055340;28;20178;-66
2022/07/23 04:06:51;;;;;;;12.97;9.50;;;;;;;;;;5055797;28;20240;-66
2022/07/23 04:09:17;;;;;;;13.10;9.93;;;;;;;;;;5056071;28;20205;-66
2022/07/23 04:11:43;;;;;;;11.13;9.63;;;;;;;;;;5055786;28;20630;-66
2022/07/23 04:14:09;;;;;;;12.63;9.17;;;;;;;;;;5056009;28;20225;-66
2022/07/23 04:16:35;;;;;;;14.07;10.57;;;;;;;;;;5037592;28;20590;-66
2022/07/23 04:19:04;;;;;;;11.13;9.20;;;;;;;;;;5055693;28;20260;-66
2022/07/23 04:21:30;;;;;;;15.00;9.43;;;;;;;;;;5055955;28;20650;-66
2022/07/23 04:23:56;;;;;;;11.40;10.20;;;;;;;;;;5055710;28;20183;-66
2022/07/23 04:26:22;;;;;;;15.67;9.40;;;;;;;;;;5037581;28;20202;-66
2022/07/23 04:28:48;;;;;;;10.90;9.47;;;;;;;;;;5037538;28;20187;-66
2022/07/23 04:31:14;;;;;;;13.17;9.60;;;;;;;;;;5055936;28;20665;-66
2022/07/23 04:33:40;;;;;;;11.03;10.00;;;;;;;;;;5055264;28;20195;-66
2022/07/23 04:36:06;;;;;;;13.67;10.33;;;;;;;;;;5055698;28;20284;-66
2022/07/23 04:38:32;;;;;;;14.17;10.33;;;;;;;;;;5055527;28;20210;-66
2022/07/23 04:40:58;;;;;;;14.87;10.77;;;;;;;;;;5055410;28;20166;-66
2022/07/23 04:43:24;;;;;;;13.83;10.43;;;;;;;;;;5055140;28;20187;-66
2022/07/23 04:45:50;;;;;;;12.63;9.80;;;;;;;;;;5037168;28;20560;-67
2022/07/23 04:48:16;;;;;;;14.90;11.70;;;;;;;;;;5054858;28;20585;-66
2022/07/23 04:50:42;;;;;;;17.03;11.33;;;;;;;;;;5055006;28;20739;-66
2022/07/23 04:53:08;;;;;;;15.53;10.77;;;;;;;;;;5037224;28;20202;-65
2022/07/23 04:55:35;;;;;;;17.10;10.60;;;;;;;;;;5054985;28;20174;-65
2022/07/23 04:58:01;;;;;;;11.50;10.30;;;;;;;;;;5055012;28;20201;-65
2022/07/23 05:00:27;;;;;;;13.00;10.10;;;;;;;;;;5054862;28;20189;-65
2022/07/23 05:02:52;;;;;;;13.90;10.77;;;;;;;;;;5055169;28;20228;-65
2022/07/23 05:05:18;;;;;;;13.53;11.17;;;;;;;;;;5054930;28;20178;-65
2022/07/23 05:07:44;;;;;;;17.50;11.07;;;;;;;;;;5036882;28;20206;-65
2022/07/23 05:10:10;;;;;;;12.23;10.80;;;;;;;;;;5054965;28;20186;-65
2022/07/23 05:12:36;;;;;;;19.73;11.20;;;;;;;;;;5036765;28;20289;-65
2022/07/23 05:15:02;;;;;;;14.50;11.07;;;;;;;;;;5035753;28;20183;-65
2022/07/23 05:17:28;;;;;;;10.73;9.10;;;;;;;;;;5036549;28;20716;-65
2022/07/23 05:19:54;;;;;;;9.17;8.27;;;;;;;;;;5036770;28;20328;-65
2022/07/23 05:22:20;;;;;;;8.23;7.50;;;;;;;;;;5054481;28;20236;-65
2022/07/23 05:24:46;;;;;;;8.10;7.30;;;;;;;;;;5036557;28;20185;-65
2022/07/23 05:27:12;;;;;;;10.30;7.63;;;;;;;;;;5054588;28;20198;-65
2022/07/23 05:29:38;;;;;;;14.60;7.23;;;;;;;;;;5054351;28;20232;-65
2022/07/23 05:32:04;;;;;;;8.53;7.17;;;;;;;;;;5036353;28;20183;-65
2022/07/23 05:34:30;;;;;;;9.33;7.20;;;;;;;;;;5054206;28;20240;-65
2022/07/23 05:36:56;;;;;;;12.67;7.87;;;;;;;;;;5036400;28;20666;-65
2022/07/23 05:39:22;;;;;;;10.97;8.40;;;;;;;;;;5036296;28;20175;-65
2022/07/23 05:41:48;;;;;;;9.93;8.50;;;;;;;;;;5054102;28;20181;-65
2022/07/23 05:44:14;;;;;;;12.60;9.10;;;;;;;;;;5054098;28;20186;-65
2022/07/23 05:46:40;;;;;;;11.23;9.07;;;;;;;;;;5053944;28;20267;-64
2022/07/23 05:49:06;;;;;;;14.07;9.37;;;;;;;;;;5036109;28;20212;-65
2022/07/23 05:51:32;;;;;;;12.40;8.27;;;;;;;;;;5054145;28;20182;-65
2022/07/23 05:53:58;;;;;;;12.90;8.60;;;;;;;;;;5053915;28;20202;-65
2022/07/23 05:56:24;;;;;;;14.27;9.60;;;;;;;;;;5035979;28;20230;-65
2022/07/23 05:58:50;;;;;;;16.57;9.33;;;;;;;;;;5054212;28;20185;-65
2022/07/23 06:01:15;;;;;;;10.30;9.03;;;;;;;;;;5053888;28;20657;-65
2022/07/23 06:03:42;;;;;;;17.13;9.90;;;;;;;;;;5035919;28;20571;-65
2022/07/23 06:06:08;;;;;;;14.17;10.40;;;;;;;;;;5035918;28;20182;-65
2022/07/23 06:08:34;;;;;;;11.90;9.63;;;;;;;;;;5036075;28;20771;-65
2022/07/23 06:11:00;;;;;;;12.33;10.07;;;;;;;;;;5036143;28;20178;-65
2022/07/23 06:13:26;;;;;;;13.63;10.90;;;;;;;;;;5035741;28;20225;-64
2022/07/23 06:15:51;;;;;;;11.60;9.60;;;;;;;;;;5053749;28;20174;-65
2022/07/23 06:18:17;;;;;;;12.23;9.67;;;;;;;;;;5053301;28;20220;-64
2022/07/23 06:20:43;;;;;;;11.27;9.17;;;;;;;;;;5053347;28;20650;-65
2022/07/23 06:23:10;;;;;;;15.60;11.27;;;;;;;;;;5053349;28;20182;-64
2022/07/23 06:25:36;;;;;;;17.07;11.20;;;;;;;;;;5053131;28;20236;-65
2022/07/23 06:28:02;;;;;;;12.00;10.23;;;;;;;;;;5053501;28;20194;-64
2022/07/23 06:30:27;;;;;;;14.87;10.77;;;;;;;;;;5053204;28;20184;-65
2022/07/23 06:32:53;;;;;;;13.90;11.33;;;;;;;;;;5053192;28;20202;-64
2022/07/23 06:35:19;;;;;;;14.67;10.87;;;;;;;;;;5053181;28;20202;-64
2022/07/23 06:37:45;;;;;;;12.07;10.87;;;;;;;;;;5035197;28;20250;-64
2022/07/23 06:40:12;;;;;;;16.37;11.37;;;;;;;;;;5035385;28;20178;-64
2022/07/23 06:42:39;;;;;;;11.60;10.17;;;;;;;;;;5035386;28;20183;-64
2022/07/23 06:45:05;;;;;;;11.53;9.60;;;;;;;;;;5053388;28;20179;-64
2022/07/23 06:47:31;;;;;;;11.77;9.47;;;;;;;;;;5053180;28;20202;-64
2022/07/23 06:49:57;;;;;;;9.10;8.20;;;;;;;;;;5053103;28;20174;-64
2022/07/23 06:52:23;;;;;;;13.83;9.10;;;;;;;;;;5053222;28;20566;-64
2022/07/23 06:54:49;;;;;;;11.07;8.43;;;;;;;;;;5035285;28;20213;-65
2022/07/23 06:57:15;;;;;;;12.47;7.90;;;;;;;;;;5053319;28;20199;-64
2022/07/23 06:59:41;;;;;;;9.43;7.93;;;;;;;;;;5052977;28;20174;-64
2022/07/23 07:02:08;;;;;;;9.77;8.40;;;;;;;;;;5053115;28;20175;-64
2022/07/23 07:04:34;;;;;;;11.90;8.27;;;;;;;;;;5052884;28;20257;-64
2022/07/23 07:07:00;;;;;;;9.57;8.17;;;;;;;;;;5035080;28;20226;-64
2022/07/23 07:09:26;;;;;;;9.73;8.00;;;;;;;;;;5035062;28;20187;-64
2022/07/23 07:11:52;;;;;;;10.13;9.03;;;;;;;;;;5034939;28;20175;-64
2022/07/23 07:14:18;;;;;;;8.23;7.43;;;;;;;;;;5052817;28;20206;-64
2022/07/23 07:16:44;;;;;;;9.30;7.90;;;;;;;;;;5034813;28;20224;-64
2022/07/23 07:19:10;;;;;;;8.53;7.63;;;;;;;;;;5052966;28;20210;-64
2022/07/23 07:21:36;;;;;;;8.20;6.90;;;;;;;;;;5052835;28;20186;-64
2022/07/23 07:24:02;;;;;;;8.33;6.67;;;;;;;;;;5053700;28;20193;-65
2022/07/23 07:26:28;;;;;;;7.80;7.00;;;;;;;;;;5034957;28;20671;-65
2022/07/23 07:28:54;;;;;;;9.47;6.77;;;;;;;;;;5053044;28;20178;-65
2022/07/23 07:31:20;;;;;;;12.10;6.23;;;;;;;;;;5052780;28;20212;-65
2022/07/23 07:33:45;;;;;;;8.73;6.50;;;;;;;;;;5052555;28;20201;-65
2022/07/23 07:36:11;;;;;;;7.87;5.90;;;;;;;;;;5053081;28;20210;-64
2022/07/23 07:38:37;;;;;;;6.67;5.60;;;;;;;;;;5054714;28;20187;-63
2022/07/23 07:41:03;;;;;;;6.27;4.97;;;;;;;;;;5038636;28;20179;-64
2022/07/23 07:43:29;;;;;;;10.60;5.80;;;;;;;;;;5056528;28;20189;-65
2022/07/23 07:45:55;;;;;;;8.10;5.43;;;;;;;;;;5056543;28;20552;-64
2022/07/23 07:48:21;;;;;;;6.93;5.70;;;;;;;;;;5056451;28;20261;-64
2022/07/23 07:50:47;;;;;;;6.53;5.93;;;;;;;;;;5056425;28;20205;-65
2022/07/23 07:53:13;;;;;;;6.83;5.47;;;;;;;;;;5056220;28;20198;-64
2022/07/23 07:55:39;;;;;;;9.57;5.93;;;;;;;;;;5056363;28;20646;-64
2022/07/23 07:58:05;;;;;;;11.97;5.30;;;;;;;;;;5056114;28;20198;-65
2022/07/23 08:00:32;;;;;;;8.37;6.50;;;;;;;;;;5056380;28;20388;-65
2022/07/23 08:02:58;;;;;;;7.93;5.93;;;;;;;;;;5056740;28;20175;-64
2022/07/23 08:05:26;;;;;;;9.07;5.70;;;;;;;;;;5056012;28;20269;-64
2022/07/23 08:07:52;;;;;;;8.20;5.63;;;;;;;;;;5038261;28;20206;-64
2022/07/23 08:10:18;;;;;;;9.63;5.10;;;;;;;;;;5056361;28;20212;-65
2022/07/23 08:12:49;;;;;;;6.73;4.77;;;;;;;;;;5055808;28;20208;-65
2022/07/23 08:15:16;;;;;;;5.80;4.93;;;;;;;;;;5037942;28;20201;-64
2022/07/23 08:17:42;;;;;;;6.97;4.90;;;;;;;;;;5037645;28;20221;-65
2022/07/23 08:20:09;;;;;;;5.83;4.83;;;;;;;;;;5037967;28;20270;-64
2022/07/23 08:23:01;;;;;;;6.57;5.20;;;;;;;;;;5037862;28;20685;-64
2022/07/23 08:25:31;;;;;;;8.83;6.40;;;;;;;;;;5034207;28;20624;-65
2022/07/23 08:27:58;;;;;;;8.10;6.00;;;;;;;;;;5037782;28;20247;-64
2022/07/23 08:30:24;;;;;;;8.47;5.43;;;;;;;;;;5055633;28;20185;-64
2022/07/23 08:32:50;;;;;;;6.20;5.00;;;;;;;;;;5055404;28;20634;-65
2022/07/23 08:35:16;;;;;;;7.10;5.30;;;;;;;;;;5055568;28;20209;-65
2022/07/23 08:37:42;;;;;;;7.53;4.87;;;;;;;;;;5055470;28;20701;-65
2022/07/23 08:40:09;;;;;;;7.53;4.97;;;;;;;;;;5055805;28;20178;-65
2022/07/23 08:42:35;;;;;;;6.90;4.63;;;;;;;;;;5055838;28;20186;-65
2022/07/23 08:45:02;;;;;;;9.07;4.93;;;;;;;;;;5037374;28;20312;-65
2022/07/23 08:47:29;;;;;;;6.33;5.17;;;;;;;;;;5055300;28;20202;-65
2022/07/23 08:49:55;;;;;;;6.87;4.80;;;;;;;;;;5055011;28;20186;-65
2022/07/23 08:52:21;;;;;;;5.00;4.50;;;;;;;;;;5055184;28;20287;-64
2022/07/23 08:54:47;;;;;;;6.37;4.00;;;;;;;;;;5055290;28;20181;-65
2022/07/23 08:57:13;;;;;;;5.10;4.60;;;;;;;;;;5055102;28;20198;-65
2022/07/23 08:59:39;;;;;;;5.83;4.17;;;;;;;;;;5037283;28;20672;-65
2022/07/23 09:02:05;;;;;;;7.87;5.13;;;;;;;;;;5037269;28;20201;-65
2022/07/23 09:04:32;;;;;;;4.97;4.47;;;;;;;;;;5037291;28;20182;-65
2022/07/23 09:06:58;;;;;;;7.03;4.47;;;;;;;;;;5055082;28;20735;-65
2022/07/23 09:09:29;;;;;;;5.70;4.00;;;;;;;;;;5055274;28;20257;-65
2022/07/23 09:12:09;;;;;;;5.30;4.07;;;;;;;;;;5038803;28;20551;-65
2022/07/23 09:14:48;;;;;;;4.43;4.00;;;;;;;;;;5057654;28;20274;-65
2022/07/23 09:17:15;;;;;;;6.17;4.77;;;;;;;;;;5057230;28;20418;-65
2022/07/23 09:19:42;;;;;;;5.83;3.90;;;;;;;;;;5056740;28;20178;-65
2022/07/23 09:22:22;;;;;;;6.57;4.27;;;;;;;;;;5056764;28;20257;-65
2022/07/23 09:25:08;;;;;;;5.43;4.20;;;;;;;;;;5055103;28;20174;-65
2022/07/23 09:27:49;;;;;;;7.17;3.70;;;;;;;;;;5054518;28;20202;-65
2022/07/23 09:30:15;;;;;;;4.47;3.93;;;;;;;;;;5054416;28;20205;-65
2022/07/23 09:32:41;;;;;;;3.70;3.30;;;;;;;;;;5036367;28;20210;-65
2022/07/23 09:35:08;;;;;;;6.73;3.97;;;;;;;;;;5036447;28;20179;-65
2022/07/23 09:40:10;;;;;;;6.23;3.77;;;;;;;;;;5052698;28;20210;-68
2022/07/23 09:42:36;;;;;;;7.00;3.40;;;;;;;;;;5036148;28;20214;-68
2022/07/23 09:45:02;;;;;;;5.27;4.57;;;;;;;;;;5054283;28;20185;-68
2022/07/23 09:47:29;;;;;;;4.07;3.40;;;;;;;;;;5036159;28;20537;-68
2022/07/23 09:50:01;;;;;;;3.70;2.80;;;;;;;;;;5053835;28;20205;-68
2022/07/23 09:52:31;;;;;;;4.67;3.10;;;;;;;;;;5035948;28;20214;-68
2022/07/23 09:55:06;;;;;;;3.53;3.00;;;;;;;;;;5054191;28;20163;-68
2022/07/23 09:57:33;;;;;;;5.27;3.30;;;;;;;;;;5054018;28;20170;-67
2022/07/23 10:00:01;;;;;;;5.37;3.50;;;;;;;;;;5054098;28;20661;-68
2022/07/23 10:02:29;;;;;;;4.37;3.73;;;;;;;;;;5053180;28;20260;-68
2022/07/23 10:04:55;;;;;;;4.03;3.63;;;;;;;;;;5053504;28;20186;-68
2022/07/23 10:07:26;;;;;;;5.37;3.60;;;;;;;;;;5053744;28;20183;-67
2022/07/23 10:09:53;;;;;;;3.73;3.33;;;;;;;;;;5053394;28;20198;-68
2022/07/23 10:12:35;;;;;;;4.67;3.13;;;;;;;;;;5035474;28;20182;-68
2022/07/23 10:15:01;;;;;;;2.83;2.63;;;;;;;;;;5053463;28;20150;-68
2022/07/23 10:17:29;;;;;;;6.00;3.37;;;;;;;;;;5053322;28;20186;-67
2022/07/23 10:19:56;;;;;;;3.33;2.97;;;;;;;;;;5053181;28;20250;-68
2022/07/23 10:22:24;;;;;;;2.90;2.60;;;;;;;;;;5053523;28;20175;-68
2022/07/23 10:25:00;;;;;;;3.03;2.80;;;;;;;;;;5035363;28;20183;-68
2022/07/23 10:27:45;;;;;;;3.43;3.13;;;;;;;;;;5053201;28;20254;-68
2022/07/23 10:30:15;;;;;;;4.63;2.90;;;;;;;;;;5035353;28;20273;-68
2022/07/23 10:32:54;;;;;;;5.77;3.70;;;;;;;;;;5053058;28;20567;-67
2022/07/23 10:35:32;;;;;;;3.70;3.27;;;;;;;;;;5035179;28;20171;-68
2022/07/23 10:38:02;;;;;;;3.67;3.00;;;;;;;;;;5052750;28;20197;-68
2022/07/23 10:40:31;;;;;;;3.83;3.10;;;;;;;;;;5035194;28;20551;-67
2022/07/23 10:42:59;;;;;;;3.50;3.03;;;;;;;;;;5053409;28;20182;-69
2022/07/23 10:45:26;;;;;;;3.37;3.07;;;;;;;;;;5053221;28;20181;-67
2022/07/23 10:47:52;;;;;;;3.97;3.57;;;;;;;;;;5053090;28;20198;-67
2022/07/23 10:50:18;;;;;;;4.87;3.40;;;;;;;;;;5053112;28;20174;-67
2022/07/23 10:53:03;;;;;;;3.37;3.07;;;;;;;;;;5052898;28;20236;-67
2022/07/23 10:55:29;;;;;;;4.47;3.30;;;;;;;;;;5053025;28;20299;-68
2022/07/23 10:57:55;;;;;;;4.93;3.03;;;;;;;;;;5052754;28;20697;-68
2022/07/23 11:00:22;;;;;;;3.10;2.70;;;;;;;;;;5052982;28;20174;-67
2022/07/23 11:02:49;;;;;;;5.90;3.60;;;;;;;;;;5052779;28;20179;-68
2022/07/23 11:05:20;;;;;;;2.83;2.20;;;;;;;;;;5052897;28;20171;-67
2022/07/23 11:08:04;;;;;;;2.80;2.60;;;;;;;;;;5053053;28;20182;-68
2022/07/23 11:10:34;;;;;;;2.50;2.10;;;;;;;;;;5052783;28;20647;-68
2022/07/23 11:13:19;;;;;;;2.83;2.53;;;;;;;;;;5055470;28;20213;-68
2022/07/23 11:16:05;;;;;;;3.77;2.57;;;;;;;;;;5057318;28;20174;-68
2022/07/23 11:18:43;;;;;;;3.43;2.40;;;;;;;;;;5056774;28;20713;-68
2022/07/23 11:21:26;;;;;;;3.10;2.80;;;;;;;;;;5056886;28;20201;-68
2022/07/23 11:24:06;;;;;;;3.17;2.97;;;;;;;;;;5056988;28;20163;-68
2022/07/23 11:26:41;;;;;;;3.83;2.83;;;;;;;;;;5038934;28;20178;-68
2022/07/23 11:29:30;;;;;;;3.17;2.20;;;;;;;;;;5057104;28;20243;-68
2022/07/23 11:32:09;;;;;;;4.67;2.97;;;;;;;;;;5038714;28;20261;-69
2022/07/23 11:34:36;;;;;;;4.10;2.77;;;;;;;;;;5056745;28;20190;-69
2022/07/23 11:37:03;;;;;;;4.43;3.53;;;;;;;;;;5056476;28;20659;-68
2022/07/23 11:39:29;;;;;;;3.23;2.93;;;;;;;;;;5038334;28;20218;-68
2022/07/23 11:41:56;;;;;;;3.50;2.87;;;;;;;;;;5056729;28;20177;-68
2022/07/23 11:44:29;;;;;;;3.97;3.53;;;;;;;;;;5056386;28;20174;-68
2022/07/23 11:46:59;;;;;;;2.80;2.60;;;;;;;;;;5056429;28;20178;-69
2022/07/23 11:49:25;;;;;;;3.47;2.40;;;;;;;;;;5038282;28;20233;-68
2022/07/23 11:52:13;;;;;;;5.87;2.87;;;;;;;;;;5038384;28;20186;-68
2022/07/23 11:54:49;;;;;;;2.93;2.73;;;;;;;;;;5038246;28;20187;-68
2022/07/23 11:57:15;;;;;;;2.93;2.60;;;;;;;;;;5056174;28;20607;-68
2022/07/23 11:59:41;;;;;;;2.70;2.50;;;;;;;;;;5056909;28;20199;-67
2022/07/23 12:02:07;;;;;;;2.20;2.10;;;;;;;;;;5056115;28;20178;-68
2022/07/23 12:04:39;;;;;;;3.00;2.80;;;;;;;;;;5056148;28;20642;-68
2022/07/23 12:07:22;;;;;;;3.87;2.20;;;;;;;;;;5056237;28;20186;-68
2022/07/23 12:09:48;;;;;;;2.70;2.00;;;;;;;;;;5055846;28;20233;-68
2022/07/23 12:12:14;;;;;;;2.33;2.13;;;;;;;;;;5056048;28;20308;-68
2022/07/23 12:14:57;;;;;;;2.80;2.60;;;;;;;;;;5038007;28;20666;-68
2022/07/23 12:17:28;;;;;;;5.20;2.40;;;;;;;;;;5056120;28;20189;-68
2022/07/23 12:19:54;;;;;;;3.87;2.37;;;;;;;;;;5037854;28;20701;-68
2022/07/23 12:22:21;;;;;;;3.60;2.53;;;;;;;;;;5056003;28;20200;-68
2022/07/23 12:24:53;;;;;;;3.40;2.57;;;;;;;;;;5055258;28;20189;-68
2022/07/23 12:27:22;;;;;;;2.20;2.10;;;;;;;;;;5055572;28;20187;-68
2022/07/23 12:29:49;;;;;;;3.83;2.63;;;;;;;;;;5037583;28;20230;-67
2022/07/23 12:32:18;;;;;;;5.37;2.20;;;;;;;;;;5038415;28;20181;-68
2022/07/23 12:34:44;;;;;;;3.53;2.07;;;;;;;;;;5037650;28;20185;-68
2022/07/23 12:37:29;;;;;;;2.40;1.97;;;;;;;;;;5037557;28;20183;-68
2022/07/23 12:39:55;;;;;;;3.73;2.50;;;;;;;;;;5037330;28;20218;-68
2022/07/23 12:42:21;;;;;;;2.40;2.20;;;;;;;;;;5055291;28;20316;-67
2022/07/23 12:45:23;;;;;;;2.23;2.03;;;;;;;;;;5055593;28;20181;-68
2022/07/23 12:47:59;;;;;;;2.60;2.40;;;;;;;;;;4974562;28;20582;-68
2022/07/23 12:50:42;;;;;;;3.33;2.10;;;;;;;;;;5044615;28;20592;-68
2022/07/23 12:53:10;;;;;;;3.27;2.33;;;;;;;;;;5055071;28;20670;-68
2022/07/23 12:55:36;;;;;;;4.63;2.23;;;;;;;;;;5055325;28;20185;-68
2022/07/23 12:58:06;;;;;;;4.70;2.27;;;;;;;;;;5037134;28;20205;-68
2022/07/23 13:00:33;;;;;;;2.77;2.20;;;;;;;;;;5055061;28;20178;-67
2022/07/23 13:02:59;;;;;;;4.37;2.70;;;;;;;;;;5054931;28;20178;-68
2022/07/23 13:05:25;;;;;;;2.40;2.20;;;;;;;;;;5054975;28;20257;-68
2022/07/23 13:07:51;;;;;;;2.67;2.43;;;;;;;;;;5055324;28;20206;-68
2022/07/23 13:10:16;;;;;;;3.20;2.70;;;;;;;;;;5037032;28;20178;-67
2022/07/23 13:12:42;;;;;;;2.30;2.10;;;;;;;;;;5055001;28;20214;-68
2022/07/23 13:15:09;;;;;;;2.37;2.17;;;;;;;;;;5055261;28;20179;-68
2022/07/23 13:17:35;;;;;;;2.63;2.40;;;;;;;;;;5054659;28;20170;-67
2022/07/23 13:20:01;;;;;;;3.37;2.50;;;;;;;;;;5054640;28;20181;-68
2022/07/23 13:22:27;;;;;;;3.20;2.67;;;;;;;;;;5054594;28;20179;-67
2022/07/23 13:24:53;;;;;;;3.30;2.60;;;;;;;;;;5036584;28;20186;-68
2022/07/23 13:27:19;;;;;;;5.07;2.60;;;;;;;;;;5055080;28;20639;-68
2022/07/23 13:29:44;;;;;;;2.60;2.40;;;;;;;;;;5036463;28;20328;-68
2022/07/23 13:32:12;;;;;;;3.30;2.30;;;;;;;;;;5054575;28;20181;-68
2022/07/23 13:34:38;;;;;;;3.00;2.30;;;;;;;;;;5036275;28;20189;-68
2022/07/23 13:37:04;;;;;;;2.70;2.37;;;;;;;;;;5053484;28;20261;-67
2022/07/23 13:39:30;;;;;;;3.53;2.20;;;;;;;;;;5054009;28;20206;-67
2022/07/23 13:41:57;;;;;;;2.87;2.60;;;;;;;;;;5054408;28;20175;-67
2022/07/23 13:44:23;;;;;;;2.90;2.60;;;;;;;;;;5054864;28;20554;-67
2022/07/23 13:46:48;;;;;;;3.17;2.77;;;;;;;;;;5036430;28;20182;-67
2022/07/23 13:49:14;;;;;;;3.03;2.67;;;;;;;;;;5036153;28;20572;-67
2022/07/23 13:51:40;;;;;;;3.70;3.03;;;;;;;;;;5054067;28;20183;-67
2022/07/23 13:54:06;;;;;;;2.97;2.57;;;;;;;;;;5036058;28;20293;-67
2022/07/23 13:56:32;;;;;;;2.93;2.63;;;;;;;;;;5053836;28;20182;-67
2022/07/23 13:58:58;;;;;;;3.10;2.80;;;;;;;;;;5053783;28;20202;-67
2022/07/23 14:01:24;;;;;;;4.70;3.70;;;;;;;;;;5053906;28;20175;-67
2022/07/23 14:03:50;;;;;;;5.50;3.97;;;;;;;;;;5036035;28;20252;-67
2022/07/23 14:06:16;;;;;;;3.90;3.50;;;;;;;;;;5054483;28;20179;-67
2022/07/23 14:08:42;;;;;;;5.97;3.17;;;;;;;;;;5053988;28;20328;-67
2022/07/23 14:11:08;;;;;;;4.80;3.43;;;;;;;;;;5053905;28;20189;-67
2022/07/23 14:13:34;;;;;;;8.00;3.83;;;;;;;;;;5053800;28;20202;-67
2022/07/23 14:16:00;;;;;;;3.17;2.70;;;;;;;;;;5054032;28;20349;-67
2022/07/23 14:18:26;;;;;;;5.87;2.97;;;;;;;;;;5053544;28;20744;-67
2022/07/23 14:20:52;;;;;;;3.83;3.43;;;;;;;;;;5053829;28;20645;-67
2022/07/23 14:23:17;;;;;;;3.33;2.80;;;;;;;;;;5035703;28;20621;-67
2022/07/23 14:25:43;;;;;;;2.70;2.50;;;;;;;;;;5053645;28;20202;-67
2022/07/23 14:28:11;;;;;;;5.20;2.93;;;;;;;;;;5053744;28;20205;-67
2022/07/23 14:30:37;;;;;;;3.73;2.73;;;;;;;;;;5053369;28;20182;-66
2022/07/23 14:33:03;;;;;;;3.23;2.93;;;;;;;;;;5053266;28;20289;-67
2022/07/23 14:35:29;;;;;;;6.83;5.80;;;;;;;;;;5053427;28;20171;-67
2022/07/23 14:37:56;;;;;;;5.50;3.50;;;;;;;;;;5053546;28;20210;-67
2022/07/23 14:40:23;;;;;;;3.33;2.83;;;;;;;;;;5053362;28;20296;-67